createdAt,value
2022-09-13T00:02:20.982Z,3.50
2022-09-13T00:04:47.775Z,4.80
2022-09-13T00:07:14.792Z,4.70
2022-09-13T00:09:41.939Z,3.58
2022-09-13T00:12:09.032Z,3.67
2022-09-13T00:14:35.855Z,3.88
2022-09-13T00:17:03.107Z,4.15
2022-09-13T00:19:31.076Z,3.28
2022-09-13T00:22:00.016Z,3.40
2022-09-13T00:24:27.129Z,3.75
2022-09-13T00:26:54.118Z,3.50
2022-09-13T00:29:21.763Z,3.72
2022-09-13T00:31:49.122Z,3.72
2022-09-13T00:34:17.780Z,3.28
2022-09-13T00:36:44.805Z,3.72
2022-09-13T00:39:12.163Z,3.20
2022-09-13T00:41:39.329Z,3.53
2022-09-13T00:44:48.877Z,3.45
2022-09-13T00:47:24.650Z,2.97
2022-09-13T00:49:59.863Z,3.83
2022-09-13T00:52:29.775Z,3.50
2022-09-13T00:55:06.960Z,3.42
2022-09-13T00:57:36.265Z,3.67
2022-09-13T01:00:12.834Z,3.53
2022-09-13T01:03:15.509Z,3.53
2022-09-13T01:05:58.053Z,5.80
2022-09-13T01:08:25.360Z,7.85
2022-09-13T01:10:53.985Z,6.65
2022-09-13T01:13:26.621Z,5.45
2022-09-13T01:15:53.699Z,4.68
2022-09-13T01:18:22.178Z,4.05
2022-09-13T01:21:26.735Z,3.53
2022-09-13T01:24:06.734Z,3.35
2022-09-13T01:27:12.429Z,3.53
2022-09-13T01:30:16.926Z,4.72
2022-09-13T01:33:06.073Z,3.45
2022-09-13T01:35:39.444Z,3.15
2022-09-13T01:38:25.147Z,4.03
2022-09-13T01:41:04.721Z,4.28
2022-09-13T01:44:06.929Z,4.38
2022-09-13T01:46:47.024Z,3.65
2022-09-13T01:49:26.444Z,3.95
2022-09-13T01:52:05.191Z,3.72
2022-09-13T01:54:51.686Z,3.65
2022-09-13T01:57:44.174Z,4.05
2022-09-13T02:00:17.429Z,4.00
2022-09-13T02:03:07.439Z,4.95
2022-09-13T02:05:44.570Z,4.55
2022-09-13T02:08:23.269Z,4.13
2022-09-13T02:10:59.716Z,3.47
2022-09-13T02:13:34.423Z,3.13
2022-09-13T02:16:11.507Z,2.95
2022-09-13T02:18:47.030Z,3.75
2022-09-13T02:21:28.486Z,4.30
2022-09-13T02:24:25.613Z,4.68
2022-09-13T02:26:55.847Z,3.83
2022-09-13T02:29:29.573Z,3.60
2022-09-13T02:32:04.201Z,3.80
2022-09-13T02:34:38.228Z,3.88
2022-09-13T02:37:08.040Z,3.83
2022-09-13T02:39:39.607Z,3.67
2022-09-13T02:42:12.907Z,3.50
2022-09-13T02:44:47.427Z,4.60
2022-09-13T02:47:29.566Z,4.05
2022-09-13T02:50:25.306Z,4.32
2022-09-13T02:53:12.868Z,3.70
2022-09-13T02:56:19.683Z,4.07
2022-09-13T02:58:57.891Z,4.53
2022-09-13T03:01:27.103Z,4.22
2022-09-13T03:03:55.190Z,4.20
2022-09-13T03:06:27.101Z,3.63
2022-09-13T03:08:57.861Z,4.18
2022-09-13T03:11:36.725Z,3.85
2022-09-13T03:14:15.976Z,3.75
2022-09-13T03:17:21.409Z,3.75
2022-09-13T03:20:19.713Z,3.72
2022-09-13T03:23:13.871Z,3.80
2022-09-13T03:26:09.904Z,3.58
2022-09-13T03:28:43.019Z,3.75
2022-09-13T03:31:22.050Z,3.65
2022-09-13T03:34:07.094Z,4.57
2022-09-13T03:36:39.684Z,4.20
2022-09-13T03:39:39.710Z,7.38
2022-09-13T03:42:23.419Z,5.35
2022-09-13T03:44:53.840Z,4.78
2022-09-13T03:47:23.625Z,4.32
2022-09-13T03:49:54.795Z,3.15
2022-09-13T03:52:22.062Z,3.45
2022-09-13T03:54:50.352Z,3.58
2022-09-13T03:57:22.804Z,3.50
2022-09-13T03:59:55.210Z,3.30
2022-09-13T04:02:25.491Z,3.70
2022-09-13T04:04:54.259Z,4.18
2022-09-13T04:07:25.067Z,6.32
2022-09-13T04:09:53.594Z,5.20
2022-09-13T04:12:20.702Z,4.43
2022-09-13T04:14:48.698Z,5.03
2022-09-13T04:17:16.408Z,5.03
2022-09-13T04:19:45.985Z,4.78
2022-09-13T04:22:14.109Z,4.40
2022-09-13T04:24:41.504Z,4.00
2022-09-13T04:27:08.477Z,15.40
2022-09-13T04:29:35.978Z,9.77
2022-09-13T04:32:04.947Z,7.28
2022-09-13T04:34:31.844Z,7.60
2022-09-13T04:36:58.860Z,7.20
2022-09-13T04:39:25.820Z,4.63
2022-09-13T04:41:55.141Z,7.40
2022-09-13T04:44:24.710Z,8.27
2022-09-13T04:46:52.664Z,8.45
2022-09-13T04:49:20.527Z,6.72
2022-09-13T04:51:48.085Z,17.33
2022-09-13T04:54:16.315Z,8.15
2022-09-13T04:56:47.292Z,7.22
2022-09-13T04:59:14.545Z,21.13
2022-09-13T05:01:41.660Z,13.38
2022-09-13T05:04:10.666Z,12.77
2022-09-13T05:06:38.035Z,8.30
2022-09-13T05:09:07.082Z,8.80
2022-09-13T05:11:34.244Z,6.18
2022-09-13T05:14:03.070Z,5.88
2022-09-13T05:16:32.950Z,6.03
2022-09-13T05:19:01.107Z,6.45
2022-09-13T05:21:28.685Z,6.43
2022-09-13T05:23:57.198Z,5.88
2022-09-13T05:26:26.765Z,7.60
2022-09-13T05:28:55.745Z,6.78
2022-09-13T05:31:27.180Z,6.00
2022-09-13T05:33:58.907Z,5.22
2022-09-13T05:36:29.109Z,4.90
2022-09-13T05:39:26.111Z,5.10
2022-09-13T05:41:47.153Z,4.93
2022-09-13T05:44:15.621Z,5.32
2022-09-13T05:46:49.315Z,4.80
2022-09-13T05:49:16.408Z,4.70
2022-09-13T05:51:44.773Z,5.03
2022-09-13T05:54:13.301Z,4.90
2022-09-13T05:56:40.510Z,4.97
2022-09-13T05:59:09.086Z,4.28
2022-09-13T06:01:36.088Z,4.82
2022-09-13T06:04:03.034Z,4.50
2022-09-13T06:06:30.966Z,4.78
2022-09-13T06:08:57.971Z,4.82
2022-09-13T06:11:26.794Z,4.97
2022-09-13T06:13:53.991Z,5.15
2022-09-13T06:16:22.722Z,4.88
2022-09-13T06:18:50.118Z,7.60
2022-09-13T06:21:20.462Z,8.98
2022-09-13T06:23:49.137Z,6.93
2022-09-13T06:26:17.901Z,8.07
2022-09-13T06:28:51.201Z,7.35
2022-09-13T06:31:20.338Z,5.78
2022-09-13T06:33:47.347Z,6.32
2022-09-13T06:36:18.297Z,5.60
2022-09-13T06:38:46.709Z,6.30
2022-09-13T06:41:23.054Z,5.38
2022-09-13T06:43:58.855Z,5.65
2022-09-13T06:46:29.538Z,5.35
2022-09-13T06:49:04.721Z,5.28
2022-09-13T06:51:32.918Z,5.45
2022-09-13T06:54:00.681Z,5.25
2022-09-13T06:56:29.600Z,5.50
2022-09-13T06:58:59.154Z,6.22
2022-09-13T07:01:41.834Z,5.15
2022-09-13T07:04:11.313Z,4.95
2022-09-13T07:06:40.767Z,5.18
2022-09-13T07:09:10.919Z,8.18
2022-09-13T07:11:40.365Z,6.60
2022-09-13T07:14:08.274Z,7.10
2022-09-13T07:16:37.634Z,15.57
2022-09-13T07:19:12.469Z,10.05
2022-09-13T07:21:39.321Z,8.75
2022-09-13T07:24:06.618Z,6.80
2022-09-13T07:26:35.243Z,6.32
2022-09-13T07:29:06.864Z,8.63
2022-09-13T07:31:40.151Z,12.40
2022-09-13T07:34:11.859Z,8.88
2022-09-13T07:36:38.830Z,9.90
2022-09-13T07:39:07.635Z,7.75
2022-09-13T07:41:37.402Z,8.13
2022-09-13T07:44:05.280Z,7.35
2022-09-13T07:46:33.748Z,7.28
2022-09-13T07:49:02.056Z,7.13
2022-09-13T07:51:39.863Z,7.75
2022-09-13T07:54:14.977Z,8.18
2022-09-13T07:56:44.267Z,8.20
2022-09-13T07:59:13.629Z,7.88
2022-09-13T08:01:43.183Z,7.43
2022-09-13T08:04:13.127Z,8.20
2022-09-13T08:06:41.506Z,7.47
2022-09-13T08:09:09.613Z,8.57
2022-09-13T08:11:48.707Z,6.68
2022-09-13T08:14:18.506Z,6.55
2022-09-13T08:16:46.191Z,5.97
2022-09-13T08:19:17.200Z,5.57
2022-09-13T08:21:46.586Z,6.22
2022-09-13T08:24:22.232Z,5.72
2022-09-13T08:26:49.591Z,6.13
2022-09-13T08:29:17.699Z,6.85
2022-09-13T08:31:45.420Z,5.47
2022-09-13T08:34:16.532Z,5.85
2022-09-13T08:36:44.177Z,5.82
2022-09-13T08:39:15.172Z,5.68
2022-09-13T08:41:49.059Z,6.17
2022-09-13T08:44:26.824Z,5.88
2022-09-13T08:47:16.374Z,6.22
2022-09-13T08:49:55.179Z,6.03
2022-09-13T08:52:40.803Z,5.72
2022-09-13T08:55:26.692Z,6.03
2022-09-13T08:58:05.810Z,6.25
2022-09-13T09:00:45.306Z,6.25
2022-09-13T09:03:46.948Z,9.10
2022-09-13T09:06:17.334Z,9.88
2022-09-13T09:08:50.054Z,6.85
2022-09-13T09:11:37.948Z,9.18
2022-09-13T09:14:36.139Z,7.43
2022-09-13T09:17:14.584Z,6.68
2022-09-13T09:19:50.453Z,6.22
2022-09-13T09:22:19.850Z,6.25
2022-09-13T09:24:51.608Z,6.28
2022-09-13T09:29:49.244Z,6.50
2022-09-13T09:32:47.457Z,6.13
2022-09-13T09:35:34.626Z,5.53
2022-09-13T09:38:32.498Z,6.15
2022-09-13T09:41:05.741Z,5.07
2022-09-13T09:43:39.206Z,5.07
2022-09-13T09:46:09.658Z,5.30
2022-09-13T09:48:49.865Z,5.25
2022-09-13T09:51:20.310Z,4.95
2022-09-13T09:53:52.215Z,5.05
2022-09-13T09:56:24.106Z,5.53
2022-09-13T09:58:54.339Z,5.60
2022-09-13T10:01:38.767Z,5.10
2022-09-13T10:04:12.527Z,4.55
2022-09-13T10:06:42.142Z,5.32
2022-09-13T10:09:17.447Z,5.45
2022-09-13T10:11:56.512Z,4.90
2022-09-13T10:14:36.251Z,5.22
2022-09-13T10:17:05.932Z,5.03
2022-09-13T10:19:33.310Z,5.00
2022-09-13T10:22:03.122Z,5.20
2022-09-13T10:24:30.860Z,4.63
2022-09-13T10:26:59.735Z,5.25
2022-09-13T10:29:28.953Z,4.72
2022-09-13T10:31:58.624Z,4.93
2022-09-13T10:34:35.435Z,5.50
2022-09-13T10:37:21.669Z,5.00
2022-09-13T10:39:57.695Z,4.60
2022-09-13T10:42:26.827Z,4.53
2022-09-13T10:44:59.346Z,5.00
2022-09-13T11:00:34.023Z,4.90
2022-09-13T11:03:19.726Z,5.00
2022-09-13T11:06:05.724Z,5.05
2022-09-13T11:08:33.288Z,4.97
2022-09-13T11:11:03.954Z,5.07
2022-09-13T11:13:36.387Z,7.95
2022-09-13T11:16:06.235Z,4.95
2022-09-13T11:18:50.083Z,5.95
2022-09-13T11:21:29.116Z,5.22
2022-09-13T11:23:56.213Z,6.00
2022-09-13T11:26:29.340Z,6.90
2022-09-13T12:33:54.128Z,6.00
2022-09-13T12:36:36.963Z,5.03
2022-09-13T12:39:06.960Z,6.07
2022-09-13T13:29:24.217Z,5.35
2022-09-13T13:32:04.511Z,4.65
2022-09-13T13:34:39.008Z,4.38
2022-09-13T13:37:08.961Z,4.93
2022-09-13T13:39:36.252Z,4.93
2022-09-13T13:42:22.712Z,4.25
2022-09-13T13:45:09.856Z,4.03
2022-09-13T13:47:39.415Z,4.63
2022-09-13T13:50:19.773Z,4.55
2022-09-13T13:52:50.674Z,3.83
2022-09-13T13:55:36.267Z,4.47
2022-09-13T13:58:21.506Z,7.00
2022-09-13T14:00:50.446Z,5.50
2022-09-13T14:06:11.302Z,5.00
2022-09-13T14:08:50.883Z,3.20
2022-09-13T14:11:26.340Z,4.05
2022-09-13T14:14:13.713Z,5.75
2022-09-13T14:16:46.637Z,4.32
2022-09-13T14:19:17.124Z,4.68
2022-09-13T14:21:45.160Z,3.95
2022-09-13T15:18:09.214Z,1.63
2022-09-13T21:54:05.939Z,3.42
